createdAt,value
2022-11-20T00:01:21.635Z,100792.75
2022-11-20T00:03:48.568Z,100788.50
2022-11-20T00:06:17.642Z,100797.13
2022-11-20T00:08:44.307Z,100793.66
2022-11-20T00:11:16.003Z,100792.78
2022-11-20T00:13:43.965Z,100794.50
2022-11-20T00:16:11.864Z,100788.25
2022-11-20T00:18:38.314Z,100791.88
2022-11-20T00:21:07.329Z,100794.44
2022-11-20T00:23:33.742Z,100788.50
2022-11-20T00:26:08.371Z,100788.50
2022-11-20T00:28:35.275Z,100789.44
2022-11-20T00:31:10.472Z,100793.69
2022-11-20T00:33:36.877Z,100797.22
2022-11-20T00:36:09.075Z,100793.75
2022-11-20T00:38:36.211Z,100795.56
2022-11-20T00:41:08.116Z,100787.84
2022-11-20T00:43:34.930Z,100785.94
2022-11-20T00:46:13.003Z,100791.06
2022-11-20T00:48:39.381Z,100797.06
2022-11-20T00:51:05.979Z,100791.19
2022-11-20T00:53:32.876Z,100795.56
2022-11-20T00:56:02.266Z,100791.25
2022-11-20T00:58:36.899Z,100790.41
2022-11-20T01:01:04.532Z,100786.00
2022-11-20T01:03:35.471Z,100791.88
2022-11-20T01:06:26.493Z,100778.19
2022-11-20T01:08:55.681Z,100783.38
2022-11-20T01:11:33.503Z,100778.31
2022-11-20T01:14:01.889Z,100780.00
2022-11-20T01:16:33.431Z,100776.63
2022-11-20T01:19:01.770Z,100772.25
2022-11-20T01:21:34.429Z,100772.91
2022-11-20T01:24:01.068Z,100770.41
2022-11-20T01:26:30.358Z,100764.50
2022-11-20T01:28:57.480Z,100763.50
2022-11-20T01:31:27.086Z,100767.78
2022-11-20T01:33:57.354Z,100769.56
2022-11-20T01:36:25.798Z,100765.94
2022-11-20T01:38:54.038Z,100760.88
2022-11-20T01:41:39.141Z,100751.28
2022-11-20T01:44:05.768Z,100747.84
2022-11-20T01:46:39.286Z,100750.41
2022-11-20T01:49:10.730Z,100746.50
2022-11-20T01:51:47.066Z,100753.28
2022-11-20T01:54:19.796Z,100743.16
2022-11-20T01:56:49.045Z,100756.94
2022-11-20T01:59:18.863Z,100747.63
2022-11-20T02:01:45.660Z,100750.13
2022-11-20T02:04:14.488Z,100741.19
2022-11-20T02:06:49.247Z,100748.13
2022-11-20T02:09:16.517Z,100738.47
2022-11-20T02:11:43.051Z,100742.94
2022-11-20T02:14:10.432Z,100745.59
2022-11-20T02:16:41.216Z,100739.41
2022-11-20T02:19:14.658Z,100739.47
2022-11-20T02:21:54.010Z,100741.34
2022-11-20T02:24:22.433Z,100746.38
2022-11-20T02:26:54.859Z,100737.00
2022-11-20T02:29:28.701Z,100731.06
2022-11-20T02:31:56.224Z,100729.41
2022-11-20T02:34:22.624Z,100728.63
2022-11-20T02:36:51.736Z,100728.38
2022-11-20T02:39:20.317Z,100728.50
2022-11-20T02:41:47.445Z,100718.31
2022-11-20T02:44:13.783Z,100720.16
2022-11-20T02:46:40.369Z,100719.25
2022-11-20T02:49:06.722Z,100713.28
2022-11-20T02:51:33.306Z,100719.97
2022-11-20T02:53:59.645Z,100724.16
2022-11-20T02:56:26.592Z,100713.13
2022-11-20T02:58:53.724Z,100726.03
2022-11-20T03:01:20.166Z,100718.25
2022-11-20T03:03:46.561Z,100711.41
2022-11-20T03:06:12.841Z,100711.50
2022-11-20T03:08:39.142Z,100711.50
2022-11-20T03:11:07.988Z,100718.38
2022-11-20T03:13:35.143Z,100712.97
2022-11-20T03:16:09.381Z,100715.34
2022-11-20T03:18:35.932Z,100711.88
2022-11-20T03:21:02.250Z,100716.19
2022-11-20T03:23:31.659Z,100712.81
2022-11-20T03:26:17.997Z,100712.25
2022-11-20T03:28:50.140Z,100702.84
2022-11-20T03:31:17.564Z,100711.28
2022-11-20T03:33:44.225Z,100706.94
2022-11-20T03:36:13.645Z,100712.75
2022-11-20T03:38:41.090Z,100709.31
2022-11-20T03:41:15.591Z,100701.00
2022-11-20T03:43:42.443Z,100699.25
2022-11-20T03:46:09.132Z,100699.38
2022-11-20T03:48:45.366Z,100687.28
2022-11-20T03:51:20.599Z,100694.13
2022-11-20T03:53:48.752Z,100683.03
2022-11-20T03:56:17.370Z,100686.25
2022-11-20T03:58:44.376Z,100686.31
2022-11-20T04:01:14.137Z,100689.91
2022-11-20T04:03:41.945Z,100689.00
2022-11-20T04:06:17.791Z,100688.13
2022-11-20T04:08:46.618Z,100699.81
2022-11-20T04:11:17.557Z,100693.72
2022-11-20T04:13:47.777Z,100696.34
2022-11-20T04:16:14.921Z,100696.19
2022-11-20T04:18:41.234Z,100687.13
2022-11-20T04:21:07.645Z,100687.06
2022-11-20T04:23:34.573Z,100681.09
2022-11-20T04:26:09.721Z,100690.50
2022-11-20T04:28:36.528Z,100690.34
2022-11-20T04:31:08.575Z,100682.72
2022-11-20T04:33:35.938Z,100684.56
2022-11-20T04:36:11.988Z,100681.09
2022-11-20T04:38:38.690Z,100673.41
2022-11-20T04:41:07.432Z,100672.53
2022-11-20T04:43:35.031Z,100669.13
2022-11-20T04:46:02.052Z,100671.63
2022-11-20T04:48:30.307Z,100665.84
2022-11-20T04:50:56.725Z,100668.28
2022-11-20T04:53:23.828Z,100670.94
2022-11-20T04:55:50.360Z,100670.19
2022-11-20T04:58:17.392Z,100672.75
2022-11-20T05:00:43.719Z,100671.91
2022-11-20T05:03:10.184Z,100663.25
2022-11-20T05:05:36.582Z,100660.66
2022-11-20T05:08:05.626Z,100660.72
2022-11-20T05:10:32.001Z,100651.97
2022-11-20T05:12:58.508Z,100657.91
2022-11-20T05:15:25.211Z,100651.84
2022-11-20T05:17:53.093Z,100652.91
2022-11-20T05:20:19.855Z,100653.81
2022-11-20T05:22:46.316Z,100647.84
2022-11-20T05:25:13.075Z,100639.75
2022-11-20T05:27:39.373Z,100639.09
2022-11-20T05:30:06.942Z,100631.41
2022-11-20T05:32:33.301Z,100633.84
2022-11-20T05:34:59.678Z,100622.81
2022-11-20T05:37:26.100Z,100623.81
2022-11-20T05:39:52.673Z,100625.50
2022-11-20T05:42:31.115Z,100620.44
2022-11-20T05:45:02.245Z,100621.28
2022-11-20T05:47:33.311Z,100615.38
2022-11-20T05:50:00.009Z,100611.84
2022-11-20T05:52:30.109Z,100610.97
2022-11-20T05:54:56.923Z,100617.63
2022-11-20T05:57:23.291Z,100618.59
2022-11-20T05:59:49.632Z,100628.84
2022-11-20T06:02:16.160Z,100625.47
2022-11-20T06:04:42.529Z,100626.41
2022-11-20T06:07:08.945Z,100628.19
2022-11-20T06:09:35.306Z,100627.28
2022-11-20T06:12:01.688Z,100633.31
2022-11-20T06:14:28.080Z,100628.13
2022-11-20T06:16:54.418Z,100628.00
2022-11-20T06:19:20.979Z,100618.72
2022-11-20T06:21:49.843Z,100629.84
2022-11-20T06:24:16.380Z,100628.84
2022-11-20T06:26:42.817Z,100638.38
2022-11-20T06:29:09.254Z,100638.28
2022-11-20T06:31:38.481Z,100639.25
2022-11-20T06:34:08.077Z,100632.34
2022-11-20T06:36:34.525Z,100635.03
2022-11-20T06:39:01.463Z,100630.50
2022-11-20T06:41:28.862Z,100624.53
2022-11-20T06:43:55.436Z,100633.25
2022-11-20T06:46:22.234Z,100629.91
2022-11-20T06:48:49.705Z,100630.44
2022-11-20T06:51:16.348Z,100629.44
2022-11-20T06:53:42.659Z,100626.00
2022-11-20T06:56:09.370Z,100626.03
2022-11-20T06:58:37.181Z,100624.09
2022-11-20T07:01:06.657Z,100626.44
2022-11-20T07:03:33.327Z,100623.91
2022-11-20T07:06:01.484Z,100630.75
2022-11-20T07:08:27.954Z,100625.81
2022-11-20T07:10:58.735Z,100626.72
2022-11-20T07:13:25.098Z,100621.19
2022-11-20T07:15:51.690Z,100615.38
2022-11-20T07:18:17.953Z,100624.25
2022-11-20T07:20:44.332Z,100617.63
2022-11-20T07:23:10.649Z,100610.84
2022-11-20T07:25:36.962Z,100611.75
2022-11-20T07:28:03.291Z,100610.06
2022-11-20T07:30:29.669Z,100616.94
2022-11-20T07:32:57.387Z,100616.91
2022-11-20T07:35:24.939Z,100611.84
2022-11-20T07:37:51.453Z,100603.41
2022-11-20T07:40:18.436Z,100601.09
2022-11-20T07:42:52.428Z,100611.22
2022-11-20T07:45:20.181Z,100613.00
2022-11-20T07:47:46.554Z,100614.59
2022-11-20T07:50:13.251Z,100617.09
2022-11-20T07:52:39.957Z,100617.09
2022-11-20T07:55:07.211Z,100616.88
2022-11-20T07:57:33.502Z,100613.53
2022-11-20T07:59:59.940Z,100622.06
2022-11-20T08:02:26.345Z,100611.13
2022-11-20T08:04:52.647Z,100618.00
2022-11-20T08:07:19.041Z,100613.00
2022-11-20T08:09:45.359Z,100606.84
2022-11-20T08:12:38.700Z,100614.59
2022-11-20T08:15:11.351Z,100618.84
2022-11-20T08:17:39.332Z,100615.06
2022-11-20T08:20:05.985Z,100613.72
2022-11-20T08:22:32.971Z,100614.66
2022-11-20T08:24:59.297Z,100612.28
2022-11-20T08:27:26.133Z,100613.03
2022-11-20T08:29:52.757Z,100610.50
2022-11-20T08:32:19.100Z,100613.66
2022-11-20T08:34:45.381Z,100613.69
2022-11-20T08:37:11.753Z,100612.03
2022-11-20T08:39:38.081Z,100612.94
2022-11-20T08:42:08.525Z,100610.31
2022-11-20T08:44:34.975Z,100616.28
2022-11-20T08:47:01.622Z,100614.78
2022-11-20T08:49:27.983Z,100611.44
2022-11-20T08:51:55.993Z,100610.66
2022-11-20T08:54:23.438Z,100610.81
2022-11-20T08:56:49.769Z,100607.41
2022-11-20T08:59:27.311Z,100622.78
2022-11-20T09:02:02.476Z,100610.72
2022-11-20T09:04:29.409Z,100613.22
2022-11-20T09:06:55.823Z,100607.97
2022-11-20T09:09:22.418Z,100612.34
2022-11-20T09:11:50.757Z,100614.00
2022-11-20T09:14:17.069Z,100622.66
2022-11-20T09:16:45.293Z,100624.41
2022-11-20T09:19:41.056Z,100623.53
2022-11-20T09:21:59.860Z,100625.28
2022-11-20T09:24:27.425Z,100630.88
2022-11-20T09:26:53.710Z,100631.75
2022-11-20T09:29:20.397Z,100633.53
2022-11-20T09:31:46.881Z,100629.91
2022-11-20T09:34:13.165Z,100626.53
2022-11-20T09:36:39.470Z,100632.41
2022-11-20T09:39:05.767Z,100630.59
2022-11-20T09:41:39.168Z,100635.16
2022-11-20T09:44:37.281Z,100622.47
2022-11-20T09:47:28.253Z,100626.81
2022-11-20T09:50:03.795Z,100618.41
2022-11-20T09:52:42.255Z,100620.09
2022-11-20T09:55:12.686Z,100613.88
2022-11-20T09:57:44.217Z,100615.56
2022-11-20T10:00:14.125Z,100616.56
2022-11-20T10:02:43.802Z,100621.63
2022-11-20T10:05:24.081Z,100624.19
2022-11-20T10:08:02.365Z,100615.88
2022-11-20T10:10:52.493Z,100615.16
2022-11-20T10:13:44.169Z,100611.75
2022-11-20T10:16:21.007Z,100610.81
2022-11-20T10:18:54.194Z,100618.53
2022-11-20T10:21:36.874Z,100621.56
2022-11-20T10:24:38.714Z,100617.19
2022-11-20T10:27:04.949Z,100613.94
2022-11-20T10:29:37.336Z,100616.50
2022-11-20T10:32:11.248Z,100614.44
2022-11-20T10:35:03.439Z,100615.09
2022-11-20T10:37:33.408Z,100616.81
2022-11-20T10:40:18.354Z,100615.84
2022-11-20T10:42:52.260Z,100611.63
2022-11-20T10:45:24.684Z,100608.34
2022-11-20T10:47:54.174Z,100613.59
2022-11-20T10:50:22.966Z,100613.88
2022-11-20T10:53:06.620Z,100616.69
2022-11-20T10:55:54.779Z,100603.91
2022-11-20T10:58:53.678Z,100595.53
2022-11-20T11:01:25.038Z,100599.00
2022-11-20T11:03:56.344Z,100593.81
2022-11-20T11:06:31.680Z,100585.22
2022-11-20T11:09:01.903Z,100595.34
2022-11-20T11:11:34.231Z,100589.19
2022-11-20T11:14:15.547Z,100581.63
2022-11-20T11:16:55.128Z,100581.56
2022-11-20T11:19:22.173Z,100581.88
2022-11-20T11:21:56.198Z,100584.50
2022-11-20T11:24:42.588Z,100574.41
2022-11-20T11:27:17.927Z,100570.66
2022-11-20T11:29:45.326Z,100567.19
2022-11-20T11:32:18.666Z,100568.91
2022-11-20T11:34:45.396Z,100563.19
2022-11-20T11:37:22.293Z,100559.56
2022-11-20T11:39:55.080Z,100562.38
2022-11-20T11:42:31.126Z,100552.06
2022-11-20T11:45:06.138Z,100551.31
2022-11-20T11:47:46.536Z,100548.00
2022-11-20T11:50:12.834Z,100546.88
2022-11-20T11:52:52.035Z,100543.72
2022-11-20T11:55:33.904Z,100548.63
2022-11-20T11:58:42.743Z,100542.75
2022-11-20T12:01:18.320Z,100546.06
2022-11-20T12:04:09.731Z,100542.75
2022-11-20T12:06:39.889Z,100539.53
2022-11-20T12:09:10.890Z,100548.25
2022-11-20T12:11:47.678Z,100549.00
2022-11-20T12:14:27.720Z,100549.72
2022-11-20T12:16:56.529Z,100545.72
2022-11-20T12:19:23.089Z,100537.22
2022-11-20T12:22:08.033Z,100537.16
2022-11-20T12:24:45.099Z,100539.81
2022-11-20T12:27:33.074Z,100530.41
2022-11-20T12:30:14.926Z,100524.31
2022-11-20T12:33:14.705Z,100524.41
2022-11-20T12:36:05.233Z,100525.63
2022-11-20T12:38:52.710Z,100512.44
2022-11-20T12:41:38.919Z,100510.53
2022-11-20T12:44:36.003Z,100507.88
2022-11-20T12:47:24.938Z,100513.06
2022-11-20T12:50:09.839Z,100507.06
2022-11-20T12:52:47.741Z,100512.19
2022-11-20T12:55:22.102Z,100515.56
2022-11-20T12:57:57.895Z,100517.44
2022-11-20T13:00:25.756Z,100511.31
2022-11-20T13:03:01.229Z,100515.06
2022-11-20T13:05:37.822Z,100517.81
2022-11-20T13:08:05.483Z,100508.47
2022-11-20T13:10:46.925Z,100510.31
2022-11-20T13:13:40.610Z,100508.69
2022-11-20T13:16:39.410Z,100506.97
2022-11-20T13:19:10.149Z,100506.19
2022-11-20T13:21:42.683Z,100503.72
2022-11-20T13:24:27.118Z,100495.03
2022-11-20T13:27:19.633Z,100488.25
2022-11-20T13:29:47.731Z,100486.69
2022-11-20T13:32:14.006Z,100491.94
2022-11-20T13:34:40.923Z,100481.59
2022-11-20T13:37:27.489Z,100483.38
2022-11-20T13:39:53.787Z,100476.38
2022-11-20T13:42:28.948Z,100468.63
2022-11-20T13:45:01.652Z,100466.78
2022-11-20T13:47:29.223Z,100465.81
2022-11-20T13:50:00.208Z,100477.03
2022-11-20T13:52:54.930Z,100469.22
2022-11-20T13:55:38.854Z,100477.81
2022-11-20T13:58:14.224Z,100475.00
2022-11-20T14:00:58.088Z,100476.66
2022-11-20T14:03:58.481Z,100474.13
2022-11-20T14:06:22.829Z,100474.19
2022-11-20T14:08:49.650Z,100468.34
2022-11-20T14:11:25.281Z,100467.53
2022-11-20T14:14:14.075Z,100459.94
2022-11-20T14:16:40.661Z,100460.06
2022-11-20T14:19:22.262Z,100460.81
2022-11-20T14:21:56.097Z,100457.88
2022-11-20T14:24:24.932Z,100459.66
2022-11-20T14:26:52.854Z,100450.41
2022-11-20T14:29:27.870Z,100454.66
2022-11-20T14:31:56.563Z,100452.16
2022-11-20T14:34:26.150Z,100447.63
2022-11-20T14:36:58.091Z,100457.91
2022-11-20T14:39:32.182Z,100451.91
2022-11-20T14:41:58.510Z,100447.69
2022-11-20T14:44:30.144Z,100450.22
2022-11-20T14:46:57.860Z,100450.97
2022-11-20T14:49:25.530Z,100446.59
2022-11-20T14:52:15.422Z,100453.50
2022-11-20T14:54:56.476Z,100439.03
2022-11-20T14:57:24.680Z,100440.66
2022-11-20T14:59:50.994Z,100442.38
2022-11-20T15:02:17.701Z,100441.66
2022-11-20T15:04:52.126Z,100438.19
2022-11-20T15:07:34.963Z,100436.38
2022-11-20T15:10:27.777Z,100432.88
2022-11-20T15:12:57.747Z,100436.38
2022-11-20T15:15:40.187Z,100436.34
2022-11-20T15:18:15.875Z,100435.56
2022-11-20T15:20:43.179Z,100426.16
2022-11-20T15:23:14.861Z,100429.66
2022-11-20T15:25:42.099Z,100435.72
2022-11-20T15:28:17.884Z,100427.75
2022-11-20T15:30:45.153Z,100428.56
2022-11-20T15:33:11.572Z,100431.84
2022-11-20T15:35:37.854Z,100423.28
2022-11-20T15:38:04.230Z,100416.34
2022-11-20T15:40:30.531Z,100428.38
2022-11-20T15:43:12.620Z,100426.78
2022-11-20T15:45:43.709Z,100420.00
2022-11-20T15:48:13.133Z,100419.09
2022-11-20T15:50:47.199Z,100423.38
2022-11-20T15:53:13.601Z,100415.56
2022-11-20T15:55:39.953Z,100424.22
2022-11-20T15:58:06.287Z,100421.75
2022-11-20T16:00:32.626Z,100424.00
2022-11-20T16:02:59.219Z,100419.00
2022-11-20T16:05:29.321Z,100414.75
2022-11-20T16:07:55.704Z,100409.69
2022-11-20T16:10:22.357Z,100420.06
2022-11-20T16:13:07.284Z,100410.47
2022-11-20T16:15:46.208Z,100408.75
2022-11-20T16:18:15.917Z,100406.09
2022-11-20T16:20:42.745Z,100403.66
2022-11-20T16:23:09.063Z,100409.88
2022-11-20T16:25:35.425Z,100403.03
2022-11-20T16:28:01.988Z,100408.94
2022-11-20T16:30:28.354Z,100404.59
2022-11-20T16:32:54.697Z,100408.06
2022-11-20T16:35:20.997Z,100403.69
2022-11-20T16:37:47.555Z,100401.19
2022-11-20T16:40:14.095Z,100403.00
2022-11-20T16:42:40.503Z,100397.94
2022-11-20T16:45:07.227Z,100396.34
2022-11-20T16:47:35.120Z,100392.88
2022-11-20T16:50:02.459Z,100389.34
2022-11-20T16:52:29.831Z,100391.25
2022-11-20T16:54:56.096Z,100388.72
2022-11-20T16:57:22.516Z,100391.16
2022-11-20T16:59:49.345Z,100396.06
2022-11-20T17:02:16.375Z,100380.53
2022-11-20T17:04:42.676Z,100389.19
2022-11-20T17:07:09.076Z,100391.75
2022-11-20T17:09:35.522Z,100392.56
2022-11-20T17:12:01.817Z,100387.38
2022-11-20T17:14:28.165Z,100386.50
2022-11-20T17:16:54.483Z,100393.38
2022-11-20T17:19:20.848Z,100382.28
2022-11-20T17:21:47.316Z,100377.09
2022-11-20T17:24:13.764Z,100376.34
2022-11-20T17:26:41.869Z,100377.19
2022-11-20T17:29:10.052Z,100370.38
2022-11-20T17:31:38.531Z,100367.78
2022-11-20T17:34:06.272Z,100367.00
2022-11-20T17:36:32.867Z,100362.75
2022-11-20T17:38:59.554Z,100366.78
2022-11-20T17:41:27.948Z,100359.06
2022-11-20T17:43:56.568Z,100359.84
2022-11-20T17:46:27.984Z,100360.78
2022-11-20T17:48:55.354Z,100355.53
2022-11-20T17:51:27.676Z,100359.81
2022-11-20T17:54:00.661Z,100354.59
2022-11-20T17:56:50.072Z,100359.81
2022-11-20T17:59:18.354Z,100359.66
2022-11-20T18:01:44.796Z,100360.50
2022-11-20T18:04:11.772Z,100362.19
2022-11-20T18:06:38.803Z,100361.25
2022-11-20T18:09:06.676Z,100364.69
2022-11-20T18:11:35.514Z,100366.25
2022-11-20T18:14:22.930Z,100361.25
2022-11-20T18:16:57.928Z,100355.22
2022-11-20T18:19:31.969Z,100358.56
2022-11-20T18:22:01.160Z,100361.13
2022-11-20T18:24:27.578Z,100355.03
2022-11-20T18:26:53.886Z,100358.47
2022-11-20T18:29:20.353Z,100352.44
2022-11-20T18:31:46.675Z,100355.84
2022-11-20T18:34:14.039Z,100353.28
2022-11-20T18:36:42.112Z,100349.88
2022-11-20T18:39:10.391Z,100340.50
2022-11-20T18:41:55.475Z,100348.97
2022-11-20T18:44:43.166Z,100341.16
2022-11-20T18:47:14.884Z,100340.19
2022-11-20T18:49:51.659Z,100339.31
2022-11-20T18:52:26.665Z,100339.25
2022-11-20T18:54:53.513Z,100344.38
2022-11-20T18:57:22.178Z,100340.94
2022-11-20T18:59:48.533Z,100337.53
2022-11-20T19:02:17.451Z,100335.00
2022-11-20T19:04:43.803Z,100337.53
2022-11-20T19:07:13.588Z,100333.41
2022-11-20T19:09:41.684Z,100331.56
2022-11-20T19:12:09.547Z,100335.00
2022-11-20T19:14:35.894Z,100328.88
2022-11-20T19:17:03.382Z,100324.53
2022-11-20T19:19:29.965Z,100325.28
2022-11-20T19:21:56.245Z,100324.56
2022-11-20T19:24:23.046Z,100318.53
2022-11-20T19:26:49.384Z,100326.97
2022-11-20T19:29:16.551Z,100323.66
2022-11-20T19:31:42.969Z,100321.06
2022-11-20T19:34:09.830Z,100317.72
2022-11-20T19:36:43.225Z,100315.25
2022-11-20T19:39:11.713Z,100312.66
2022-11-20T19:41:39.839Z,100313.50
2022-11-20T19:44:12.399Z,100309.19
2022-11-20T19:46:39.434Z,100301.53
2022-11-20T19:49:09.924Z,100308.34
2022-11-20T19:51:38.492Z,100303.13
2022-11-20T19:54:06.223Z,100308.25
2022-11-20T19:56:33.941Z,100309.91
2022-11-20T19:59:01.102Z,100303.06
2022-11-20T20:01:30.006Z,100298.69
2022-11-20T20:04:02.385Z,100297.69
2022-11-20T20:06:29.391Z,100299.31
2022-11-20T20:09:01.207Z,100293.38
2022-11-20T20:11:30.318Z,100289.72
2022-11-20T20:13:58.884Z,100285.41
2022-11-20T20:16:26.473Z,100287.97
2022-11-20T20:18:57.810Z,100282.91
2022-11-20T20:21:24.318Z,100286.19
2022-11-20T20:23:55.495Z,100271.41
2022-11-20T20:26:24.028Z,100267.88
2022-11-20T20:28:50.867Z,100272.94
2022-11-20T20:31:20.048Z,100269.31
2022-11-20T20:33:46.713Z,100265.81
2022-11-20T20:36:15.257Z,100263.13
2022-11-20T20:38:43.243Z,100255.50
2022-11-20T20:41:09.977Z,100260.63
2022-11-20T20:43:55.836Z,100258.22
2022-11-20T20:46:22.595Z,100262.44
2022-11-20T20:48:54.205Z,100260.47
2022-11-20T20:51:21.346Z,100256.00
2022-11-20T20:53:47.649Z,100246.56
2022-11-20T20:56:14.570Z,100255.09
2022-11-20T20:58:41.381Z,100254.88
2022-11-20T21:01:11.031Z,100246.22
2022-11-20T21:03:37.471Z,100243.63
2022-11-20T21:06:05.665Z,100242.75
2022-11-20T21:08:32.395Z,100248.66
2022-11-20T21:11:16.366Z,100249.44
2022-11-20T21:13:44.286Z,100244.34
2022-11-20T21:16:11.813Z,100244.44
2022-11-20T21:18:38.112Z,100245.13
2022-11-20T21:21:27.840Z,100239.34
2022-11-20T21:23:54.121Z,100242.44
2022-11-20T21:26:21.179Z,100239.88
2022-11-20T21:28:47.999Z,100237.44
2022-11-20T21:31:18.433Z,100235.69
2022-11-20T21:33:50.315Z,100230.53
2022-11-20T21:36:19.291Z,100231.31
2022-11-20T21:38:46.645Z,100230.34
2022-11-20T21:41:14.479Z,100228.44
2022-11-20T21:43:42.495Z,100228.31
2022-11-20T21:46:11.325Z,100230.88
2022-11-20T21:48:42.111Z,100234.28
2022-11-20T21:51:08.391Z,100228.44
2022-11-20T21:53:34.955Z,100233.22
2022-11-20T21:56:04.029Z,100230.44
2022-11-20T21:58:30.705Z,100222.47
2022-11-20T22:00:57.173Z,100224.91
2022-11-20T22:03:23.585Z,100213.75
2022-11-20T22:05:56.959Z,100217.22
2022-11-20T22:08:24.853Z,100211.19
2022-11-20T22:10:59.194Z,100212.78
2022-11-20T22:13:45.154Z,100209.22
2022-11-20T22:16:11.871Z,100207.69
2022-11-20T22:18:57.905Z,100210.22
2022-11-20T22:21:26.818Z,100209.25
2022-11-20T22:23:54.103Z,100207.53
2022-11-20T22:26:23.592Z,100212.56
2022-11-20T22:28:52.242Z,100203.19
2022-11-20T22:31:20.604Z,100210.06
2022-11-20T22:33:47.495Z,100210.16
2022-11-20T22:36:16.585Z,100206.63
2022-11-20T22:38:43.358Z,100203.19
2022-11-20T22:41:18.041Z,100201.69
2022-11-20T22:43:45.219Z,100201.56
2022-11-20T22:46:14.383Z,100201.44
2022-11-20T22:48:42.771Z,100197.13
2022-11-20T22:51:12.713Z,100197.09
2022-11-20T22:53:40.511Z,100193.66
2022-11-20T22:56:08.363Z,100192.06
2022-11-20T22:58:37.186Z,100189.59
2022-11-20T23:01:10.833Z,100189.50
2022-11-20T23:03:39.062Z,100192.06
2022-11-20T23:06:06.166Z,100190.38
2022-11-20T23:08:33.357Z,100191.09
2022-11-20T23:11:04.531Z,100186.16
2022-11-20T23:13:31.042Z,100186.00
2022-11-20T23:16:08.925Z,100184.31
2022-11-20T23:18:35.974Z,100186.09
2022-11-20T23:21:11.350Z,100173.91
2022-11-20T23:23:38.277Z,100170.59
2022-11-20T23:26:06.913Z,100161.19
2022-11-20T23:28:33.840Z,100166.44
2022-11-20T23:31:00.932Z,100160.38
2022-11-20T23:33:27.459Z,100158.81
2022-11-20T23:35:53.833Z,100168.44
2022-11-20T23:38:20.137Z,100167.72
2022-11-20T23:40:48.253Z,100159.91
2022-11-20T23:43:16.200Z,100158.09
2022-11-20T23:45:44.524Z,100155.44
2022-11-20T23:48:10.968Z,100148.66
2022-11-20T23:50:37.662Z,100147.94
2022-11-20T23:53:04.332Z,100144.47
2022-11-20T23:55:30.740Z,100147.00
2022-11-20T23:57:57.332Z,100150.22
